sensor_id;sensor_type;location;lat;lon;timestamp;pressure;altitude;pressure_sealevel;temperature;humidity
20009;BME280;10165;42.662;23.260;2022-11-23T00:00:34;92888.94;;;10.63;68.90
20009;BME280;10165;42.662;23.260;2022-11-23T00:03:01;92894.97;;;10.49;70.27
20009;BME280;10165;42.662;23.260;2022-11-23T00:05:29;92895.34;;;10.47;70.31
20009;BME280;10165;42.662;23.260;2022-11-23T00:07:56;92902.78;;;10.82;69.20
20009;BME280;10165;42.662;23.260;2022-11-23T00:10:23;92905.38;;;10.68;69.12
20009;BME280;10165;42.662;23.260;2022-11-23T00:12:50;92910.47;;;10.94;68.72
20009;BME280;10165;42.662;23.260;2022-11-23T00:15:16;92885.63;;;10.83;68.29
20009;BME280;10165;42.662;23.260;2022-11-23T00:17:46;92887.22;;;11.02;67.60
20009;BME280;10165;42.662;23.260;2022-11-23T00:20:13;92885.31;;;11.02;68.08
20009;BME280;10165;42.662;23.260;2022-11-23T00:22:40;92867.75;;;11.01;67.97
20009;BME280;10165;42.662;23.260;2022-11-23T00:25:07;92878.09;;;11.17;67.43
20009;BME280;10165;42.662;23.260;2022-11-23T00:27:34;92877.31;;;11.06;68.00
20009;BME280;10165;42.662;23.260;2022-11-23T00:30:01;92861.63;;;10.97;67.98
20009;BME280;10165;42.662;23.260;2022-11-23T00:32:28;92876.88;;;10.97;68.00
20009;BME280;10165;42.662;23.260;2022-11-23T00:34:55;92891.75;;;10.87;68.73
20009;BME280;10165;42.662;23.260;2022-11-23T00:37:22;92886.81;;;10.96;68.18
20009;BME280;10165;42.662;23.260;2022-11-23T00:39:48;92874.59;;;10.92;68.37
20009;BME280;10165;42.662;23.260;2022-11-23T00:42:15;92877.28;;;10.95;68.11
20009;BME280;10165;42.662;23.260;2022-11-23T00:44:42;92874.97;;;10.97;68.72
20009;BME280;10165;42.662;23.260;2022-11-23T00:47:08;92880.72;;;10.96;69.17
20009;BME280;10165;42.662;23.260;2022-11-23T00:49:35;92873.03;;;10.87;68.94
20009;BME280;10165;42.662;23.260;2022-11-23T00:52:02;92873.00;;;10.77;69.72
20009;BME280;10165;42.662;23.260;2022-11-23T00:54:29;92872.66;;;10.92;69.73
20009;BME280;10165;42.662;23.260;2022-11-23T00:56:55;92872.63;;;10.82;70.14
20009;BME280;10165;42.662;23.260;2022-11-23T00:59:22;92876.50;;;10.91;70.01
20009;BME280;10165;42.662;23.260;2022-11-23T01:01:49;92868.09;;;10.93;69.84
20009;BME280;10165;42.662;23.260;2022-11-23T01:04:15;92881.81;;;10.84;70.11
20009;BME280;10165;42.662;23.260;2022-11-23T01:06:42;92859.56;;;10.63;70.95
20009;BME280;10165;42.662;23.260;2022-11-23T01:09:30;92869.13;;;10.67;70.95
20009;BME280;10165;42.662;23.260;2022-11-23T01:11:57;92879.84;;;10.71;71.05
20009;BME280;10165;42.662;23.260;2022-11-23T01:14:24;92875.22;;;10.64;71.75
20009;BME280;10165;42.662;23.260;2022-11-23T01:16:51;92864.13;;;10.62;71.24
20009;BME280;10165;42.662;23.260;2022-11-23T01:19:19;92868.28;;;10.45;72.60
20009;BME280;10165;42.662;23.260;2022-11-23T01:21:46;92855.69;;;10.46;72.58
20009;BME280;10165;42.662;23.260;2022-11-23T01:24:18;92870.94;;;10.45;72.96
20009;BME280;10165;42.662;23.260;2022-11-23T01:26:50;92873.91;;;10.33;72.89
20009;BME280;10165;42.662;23.260;2022-11-23T01:29:17;92869.38;;;10.37;72.96
20009;BME280;10165;42.662;23.260;2022-11-23T01:31:44;92867.59;;;10.08;74.47
20009;BME280;10165;42.662;23.260;2022-11-23T01:34:12;92858.69;;;9.86;75.62
20009;BME280;10165;42.662;23.260;2022-11-23T01:36:40;92858.72;;;10.41;73.20
20009;BME280;10165;42.662;23.260;2022-11-23T01:39:06;92867.84;;;10.40;73.41
20009;BME280;10165;42.662;23.260;2022-11-23T01:41:35;92868.31;;;9.98;74.66
20009;BME280;10165;42.662;23.260;2022-11-23T01:46:48;92865.69;;;10.08;75.43
20009;BME280;10165;42.662;23.260;2022-11-23T01:49:15;92856.78;;;9.87;75.79
20009;BME280;10165;42.662;23.260;2022-11-23T01:51:44;92868.59;;;10.37;74.39
20009;BME280;10165;42.662;23.260;2022-11-23T01:54:17;92879.59;;;10.28;73.47
20009;BME280;10165;42.662;23.260;2022-11-23T01:56:51;92880.00;;;10.30;73.75
20009;BME280;10165;42.662;23.260;2022-11-23T01:59:19;92877.72;;;10.36;74.58
20009;BME280;10165;42.662;23.260;2022-11-23T02:01:46;92849.69;;;9.54;75.52
20009;BME280;10165;42.662;23.260;2022-11-23T02:04:20;92842.19;;;9.70;77.36
20009;BME280;10165;42.662;23.260;2022-11-23T02:06:48;92851.97;;;10.06;75.78
20009;BME280;10165;42.662;23.260;2022-11-23T02:09:16;92845.81;;;10.57;74.11
20009;BME280;10165;42.662;23.260;2022-11-23T02:11:44;92843.06;;;10.43;74.08
20009;BME280;10165;42.662;23.260;2022-11-23T02:14:11;92833.44;;;10.28;74.14
20009;BME280;10165;42.662;23.260;2022-11-23T02:16:38;92839.53;;;10.21;75.13
20009;BME280;10165;42.662;23.260;2022-11-23T02:19:20;92828.88;;;10.25;74.71
20009;BME280;10165;42.662;23.260;2022-11-23T02:21:50;92828.19;;;10.38;74.62
20009;BME280;10165;42.662;23.260;2022-11-23T02:24:25;92845.59;;;10.15;75.21
20009;BME280;10165;42.662;23.260;2022-11-23T02:26:54;92834.31;;;9.88;76.44
20009;BME280;10165;42.662;23.260;2022-11-23T02:29:24;92823.25;;;9.86;77.29
20009;BME280;10165;42.662;23.260;2022-11-23T02:31:52;92830.22;;;9.50;78.44
20009;BME280;10165;42.662;23.260;2022-11-23T02:34:19;92822.75;;;10.24;75.50
20009;BME280;10165;42.662;23.260;2022-11-23T02:36:51;92826.22;;;10.28;75.24
20009;BME280;10165;42.662;23.260;2022-11-23T02:41:50;92803.78;;;10.40;73.59
20009;BME280;10165;42.662;23.260;2022-11-23T02:47:07;92801.63;;;10.67;72.62
20009;BME280;10165;42.662;23.260;2022-11-23T02:49:35;92801.16;;;10.47;73.64
20009;BME280;10165;42.662;23.260;2022-11-23T02:52:02;92794.28;;;10.42;73.66
20009;BME280;10165;42.662;23.260;2022-11-23T02:54:29;92798.13;;;10.55;72.97
20009;BME280;10165;42.662;23.260;2022-11-23T02:56:56;92780.19;;;10.45;73.22
20009;BME280;10165;42.662;23.260;2022-11-23T02:59:22;92787.44;;;10.52;73.25
20009;BME280;10165;42.662;23.260;2022-11-23T03:01:49;92792.06;;;10.62;72.82
20009;BME280;10165;42.662;23.260;2022-11-23T03:04:16;92788.97;;;10.46;73.06
20009;BME280;10165;42.662;23.260;2022-11-23T03:06:42;92795.88;;;10.61;72.75
20009;BME280;10165;42.662;23.260;2022-11-23T03:09:09;92782.47;;;10.54;72.77
20009;BME280;10165;42.662;23.260;2022-11-23T03:11:36;92777.06;;;10.33;73.18
20009;BME280;10165;42.662;23.260;2022-11-23T03:14:03;92765.66;;;10.43;73.00
20009;BME280;10165;42.662;23.260;2022-11-23T03:16:29;92780.88;;;10.32;73.01
20009;BME280;10165;42.662;23.260;2022-11-23T03:18:56;92763.41;;;10.45;72.86
20009;BME280;10165;42.662;23.260;2022-11-23T03:21:23;92780.16;;;10.38;73.17
20009;BME280;10165;42.662;23.260;2022-11-23T03:23:49;92771.84;;;10.58;72.43
20009;BME280;10165;42.662;23.260;2022-11-23T03:26:16;92767.50;;;10.25;73.88
20009;BME280;10165;42.662;23.260;2022-11-23T03:28:43;92779.44;;;10.48;73.20
20009;BME280;10165;42.662;23.260;2022-11-23T03:31:09;92777.41;;;10.28;73.71
20009;BME280;10165;42.662;23.260;2022-11-23T03:33:36;92766.78;;;8.45;81.34
20009;BME280;10165;42.662;23.260;2022-11-23T03:36:04;92767.06;;;9.54;78.45
20009;BME280;10165;42.662;23.260;2022-11-23T03:38:30;92762.34;;;9.91;75.99
20009;BME280;10165;42.662;23.260;2022-11-23T03:40:57;92757.81;;;9.95;74.66
20009;BME280;10165;42.662;23.260;2022-11-23T03:43:24;92745.75;;;10.16;74.23
20009;BME280;10165;42.662;23.260;2022-11-23T03:45:51;92760.28;;;10.29;73.94
20009;BME280;10165;42.662;23.260;2022-11-23T03:48:17;92726.69;;;10.21;72.75
20009;BME280;10165;42.662;23.260;2022-11-23T03:50:44;92734.81;;;9.70;76.26
20009;BME280;10165;42.662;23.260;2022-11-23T03:53:11;92721.66;;;10.08;74.38
20009;BME280;10165;42.662;23.260;2022-11-23T03:55:38;92727.38;;;10.07;73.91
20009;BME280;10165;42.662;23.260;2022-11-23T03:58:04;92734.22;;;10.04;73.38
20009;BME280;10165;42.662;23.260;2022-11-23T04:00:31;92735.41;;;10.14;73.46
20009;BME280;10165;42.662;23.260;2022-11-23T04:02:58;92745.22;;;9.92;73.84
20009;BME280;10165;42.662;23.260;2022-11-23T04:05:24;92762.16;;;9.63;74.28
20009;BME280;10165;42.662;23.260;2022-11-23T04:07:53;92759.25;;;9.86;74.69
20009;BME280;10165;42.662;23.260;2022-11-23T04:10:19;92757.59;;;9.64;74.79
20009;BME280;10165;42.662;23.260;2022-11-23T04:12:50;92749.47;;;10.04;73.71
20009;BME280;10165;42.662;23.260;2022-11-23T04:15:17;92752.84;;;9.97;73.34
20009;BME280;10165;42.662;23.260;2022-11-23T04:17:44;92751.75;;;10.09;73.40
20009;BME280;10165;42.662;23.260;2022-11-23T04:20:12;92749.56;;;10.22;72.15
20009;BME280;10165;42.662;23.260;2022-11-23T04:22:39;92763.56;;;10.08;73.06
20009;BME280;10165;42.662;23.260;2022-11-23T04:25:06;92752.94;;;10.12;72.67
20009;BME280;10165;42.662;23.260;2022-11-23T04:27:33;92765.94;;;10.17;72.78
20009;BME280;10165;42.662;23.260;2022-11-23T04:29:59;92757.94;;;10.17;72.07
20009;BME280;10165;42.662;23.260;2022-11-23T04:32:26;92773.94;;;10.20;72.04
20009;BME280;10165;42.662;23.260;2022-11-23T04:34:53;92755.41;;;9.76;73.45
20009;BME280;10165;42.662;23.260;2022-11-23T04:37:20;92765.94;;;9.62;73.47
20009;BME280;10165;42.662;23.260;2022-11-23T04:39:46;92777.13;;;9.78;73.87
20009;BME280;10165;42.662;23.260;2022-11-23T04:42:13;92774.19;;;10.01;73.71
20009;BME280;10165;42.662;23.260;2022-11-23T04:44:40;92772.03;;;9.63;73.56
20009;BME280;10165;42.662;23.260;2022-11-23T04:47:06;92779.19;;;10.06;73.70
20009;BME280;10165;42.662;23.260;2022-11-23T04:49:33;92787.78;;;10.40;71.97
20009;BME280;10165;42.662;23.260;2022-11-23T04:52:00;92766.84;;;9.80;73.38
20009;BME280;10165;42.662;23.260;2022-11-23T04:54:26;92789.75;;;9.88;74.03
20009;BME280;10165;42.662;23.260;2022-11-23T04:56:53;92763.38;;;9.22;76.13
20009;BME280;10165;42.662;23.260;2022-11-23T04:59:20;92790.66;;;9.55;75.79
20009;BME280;10165;42.662;23.260;2022-11-23T05:01:48;92807.34;;;9.96;73.94
20009;BME280;10165;42.662;23.260;2022-11-23T05:04:14;92786.09;;;10.14;73.51
20009;BME280;10165;42.662;23.260;2022-11-23T05:06:43;92807.16;;;10.23;72.88
20009;BME280;10165;42.662;23.260;2022-11-23T05:09:11;92790.75;;;10.28;72.49
20009;BME280;10165;42.662;23.260;2022-11-23T05:11:37;92782.81;;;10.35;71.99
20009;BME280;10165;42.662;23.260;2022-11-23T05:14:04;92779.97;;;10.10;72.51
20009;BME280;10165;42.662;23.260;2022-11-23T05:16:31;92790.28;;;10.12;72.48
20009;BME280;10165;42.662;23.260;2022-11-23T05:18:57;92801.84;;;9.75;74.59
20009;BME280;10165;42.662;23.260;2022-11-23T05:21:24;92800.25;;;9.67;74.45
20009;BME280;10165;42.662;23.260;2022-11-23T05:23:51;92799.34;;;9.45;76.07
20009;BME280;10165;42.662;23.260;2022-11-23T05:26:17;92781.22;;;9.65;75.68
20009;BME280;10165;42.662;23.260;2022-11-23T05:28:44;92788.25;;;9.94;74.40
20009;BME280;10165;42.662;23.260;2022-11-23T05:31:11;92781.13;;;10.13;73.80
20009;BME280;10165;42.662;23.260;2022-11-23T05:33:37;92786.44;;;10.09;73.74
20009;BME280;10165;42.662;23.260;2022-11-23T05:36:05;92781.97;;;10.24;73.66
20009;BME280;10165;42.662;23.260;2022-11-23T05:38:31;92781.59;;;10.22;74.00
20009;BME280;10165;42.662;23.260;2022-11-23T05:40:58;92766.66;;;10.14;73.38
20009;BME280;10165;42.662;23.260;2022-11-23T05:43:24;92786.50;;;10.16;73.71
20009;BME280;10165;42.662;23.260;2022-11-23T05:45:51;92773.72;;;10.50;72.77
20009;BME280;10165;42.662;23.260;2022-11-23T05:48:18;92771.91;;;9.99;74.04
20009;BME280;10165;42.662;23.260;2022-11-23T05:50:44;92780.06;;;10.21;73.72
20009;BME280;10165;42.662;23.260;2022-11-23T05:53:11;92780.81;;;10.18;73.56
20009;BME280;10165;42.662;23.260;2022-11-23T05:55:38;92776.16;;;10.04;74.76
20009;BME280;10165;42.662;23.260;2022-11-23T05:58:04;92780.47;;;10.23;74.08
20009;BME280;10165;42.662;23.260;2022-11-23T06:00:31;92768.28;;;10.29;73.90
20009;BME280;10165;42.662;23.260;2022-11-23T06:02:59;92760.75;;;10.55;73.13
20009;BME280;10165;42.662;23.260;2022-11-23T06:05:27;92773.25;;;10.27;73.76
20009;BME280;10165;42.662;23.260;2022-11-23T06:07:54;92779.41;;;10.45;73.37
20009;BME280;10165;42.662;23.260;2022-11-23T06:10:21;92779.44;;;10.52;73.11
20009;BME280;10165;42.662;23.260;2022-11-23T06:12:48;92800.41;;;10.50;73.13
20009;BME280;10165;42.662;23.260;2022-11-23T06:15:18;92797.00;;;10.53;72.60
20009;BME280;10165;42.662;23.260;2022-11-23T06:17:45;92801.16;;;10.54;72.85
20009;BME280;10165;42.662;23.260;2022-11-23T06:20:11;92800.81;;;10.55;73.15
20009;BME280;10165;42.662;23.260;2022-11-23T06:22:38;92798.53;;;10.58;72.58
20009;BME280;10165;42.662;23.260;2022-11-23T06:25:05;92814.63;;;10.06;73.92
20009;BME280;10165;42.662;23.260;2022-11-23T06:27:32;92814.22;;;10.04;75.27
20009;BME280;10165;42.662;23.260;2022-11-23T06:29:59;92812.22;;;10.49;74.27
20009;BME280;10165;42.662;23.260;2022-11-23T06:32:25;92810.72;;;10.55;73.70
20009;BME280;10165;42.662;23.260;2022-11-23T06:34:52;92807.28;;;10.51;73.72
20009;BME280;10165;42.662;23.260;2022-11-23T06:37:24;92814.84;;;10.35;74.33
20009;BME280;10165;42.662;23.260;2022-11-23T06:39:51;92805.19;;;10.20;75.07
20009;BME280;10165;42.662;23.260;2022-11-23T06:42:17;92812.16;;;10.35;74.96
20009;BME280;10165;42.662;23.260;2022-11-23T06:45:05;92814.09;;;10.38;75.05
20009;BME280;10165;42.662;23.260;2022-11-23T06:47:32;92809.28;;;10.72;74.10
20009;BME280;10165;42.662;23.260;2022-11-23T06:49:58;92788.25;;;10.63;74.14
20009;BME280;10165;42.662;23.260;2022-11-23T06:52:25;92796.53;;;10.37;74.58
20009;BME280;10165;42.662;23.260;2022-11-23T06:54:51;92800.91;;;10.77;74.44
20009;BME280;10165;42.662;23.260;2022-11-23T06:57:18;92798.25;;;10.80;74.24
20009;BME280;10165;42.662;23.260;2022-11-23T06:59:45;92789.81;;;10.68;74.79
20009;BME280;10165;42.662;23.260;2022-11-23T07:02:11;92799.78;;;10.88;73.40
20009;BME280;10165;42.662;23.260;2022-11-23T07:04:38;92797.06;;;10.71;74.10
20009;BME280;10165;42.662;23.260;2022-11-23T07:07:08;92815.00;;;10.77;74.79
20009;BME280;10165;42.662;23.260;2022-11-23T07:09:35;92797.78;;;10.61;75.05
20009;BME280;10165;42.662;23.260;2022-11-23T07:12:02;92806.91;;;10.52;74.88
20009;BME280;10165;42.662;23.260;2022-11-23T07:14:28;92806.25;;;10.80;74.45
20009;BME280;10165;42.662;23.260;2022-11-23T07:16:55;92813.03;;;10.57;75.03
20009;BME280;10165;42.662;23.260;2022-11-23T07:19:22;92821.56;;;10.94;73.66
20009;BME280;10165;42.662;23.260;2022-11-23T07:21:48;92816.94;;;10.80;74.61
20009;BME280;10165;42.662;23.260;2022-11-23T07:24:15;92832.09;;;10.62;74.49
20009;BME280;10165;42.662;23.260;2022-11-23T07:26:42;92815.41;;;10.83;76.79
20009;BME280;10165;42.662;23.260;2022-11-23T07:29:09;92818.06;;;10.79;76.34
20009;BME280;10165;42.662;23.260;2022-11-23T07:31:36;92811.72;;;11.23;74.77
20009;BME280;10165;42.662;23.260;2022-11-23T07:34:02;92804.06;;;11.25;73.14
20009;BME280;10165;42.662;23.260;2022-11-23T07:36:30;92810.53;;;11.17;73.76
20009;BME280;10165;42.662;23.260;2022-11-23T07:38:57;92811.72;;;11.40;73.18
20009;BME280;10165;42.662;23.260;2022-11-23T07:41:23;92817.06;;;11.33;72.46
20009;BME280;10165;42.662;23.260;2022-11-23T07:43:52;92814.75;;;11.28;73.04
20009;BME280;10165;42.662;23.260;2022-11-23T07:46:20;92800.25;;;11.33;73.44
20009;BME280;10165;42.662;23.260;2022-11-23T07:48:47;92812.50;;;11.44;72.13
20009;BME280;10165;42.662;23.260;2022-11-23T07:51:13;92813.19;;;11.13;73.45
20009;BME280;10165;42.662;23.260;2022-11-23T07:53:41;92815.19;;;10.33;77.12
20009;BME280;10165;42.662;23.260;2022-11-23T07:56:08;92812.75;;;10.86;75.17
20009;BME280;10165;42.662;23.260;2022-11-23T07:58:35;92810.84;;;10.83;75.21
20009;BME280;10165;42.662;23.260;2022-11-23T08:01:02;92823.88;;;11.02;74.70
20009;BME280;10165;42.662;23.260;2022-11-23T08:03:28;92809.41;;;11.35;73.32
20009;BME280;10165;42.662;23.260;2022-11-23T08:05:56;92799.50;;;11.36;73.31
20009;BME280;10165;42.662;23.260;2022-11-23T08:08:23;92799.50;;;11.46;72.97
20009;BME280;10165;42.662;23.260;2022-11-23T08:10:49;92806.31;;;11.01;74.93
20009;BME280;10165;42.662;23.260;2022-11-23T08:13:19;92803.28;;;11.28;73.85
20009;BME280;10165;42.662;23.260;2022-11-23T08:15:46;92797.97;;;11.63;73.06
20009;BME280;10165;42.662;23.260;2022-11-23T08:18:20;92788.81;;;11.68;72.99
20009;BME280;10165;42.662;23.260;2022-11-23T08:20:47;92785.03;;;11.72;72.96
20009;BME280;10165;42.662;23.260;2022-11-23T08:23:14;92796.44;;;11.69;72.66
20009;BME280;10165;42.662;23.260;2022-11-23T08:25:40;92796.09;;;11.78;72.25
20009;BME280;10165;42.662;23.260;2022-11-23T08:28:07;92797.25;;;11.84;71.96
20009;BME280;10165;42.662;23.260;2022-11-23T08:30:35;92785.75;;;11.69;73.32
20009;BME280;10165;42.662;23.260;2022-11-23T08:33:06;92780.41;;;11.94;72.80
20009;BME280;10165;42.662;23.260;2022-11-23T08:35:34;92791.47;;;11.96;72.20
20009;BME280;10165;42.662;23.260;2022-11-23T08:38:03;92791.09;;;12.22;71.93
20009;BME280;10165;42.662;23.260;2022-11-23T08:40:30;92784.97;;;11.23;74.47
20009;BME280;10165;42.662;23.260;2022-11-23T08:42:57;92794.97;;;11.72;74.17
20009;BME280;10165;42.662;23.260;2022-11-23T08:45:24;92796.09;;;11.74;73.92
20009;BME280;10165;42.662;23.260;2022-11-23T08:47:51;92798.00;;;11.49;74.89
20009;BME280;10165;42.662;23.260;2022-11-23T08:50:19;92800.28;;;11.89;72.69
20009;BME280;10165;42.662;23.260;2022-11-23T08:52:46;92797.63;;;11.61;73.14
20009;BME280;10165;42.662;23.260;2022-11-23T08:55:13;92793.41;;;11.78;73.58
20009;BME280;10165;42.662;23.260;2022-11-23T08:57:39;92798.34;;;11.58;74.43
20009;BME280;10165;42.662;23.260;2022-11-23T09:00:07;92803.69;;;12.08;72.83
20009;BME280;10165;42.662;23.260;2022-11-23T09:02:34;92804.47;;;11.69;74.36
20009;BME280;10165;42.662;23.260;2022-11-23T09:05:01;92809.06;;;11.62;75.23
20009;BME280;10165;42.662;23.260;2022-11-23T09:07:28;92794.16;;;11.96;73.65
20009;BME280;10165;42.662;23.260;2022-11-23T09:09:57;92791.09;;;11.69;74.70
20009;BME280;10165;42.662;23.260;2022-11-23T09:12:24;92790.72;;;11.85;74.49
20009;BME280;10165;42.662;23.260;2022-11-23T09:14:51;92780.41;;;11.69;74.32
20009;BME280;10165;42.662;23.260;2022-11-23T09:17:18;92783.44;;;11.36;75.37
20009;BME280;10165;42.662;23.260;2022-11-23T09:19:45;92787.28;;;11.49;75.31
20009;BME280;10165;42.662;23.260;2022-11-23T09:22:11;92779.63;;;11.58;75.14
20009;BME280;10165;42.662;23.260;2022-11-23T09:24:38;92781.94;;;12.06;75.11
20009;BME280;10165;42.662;23.260;2022-11-23T09:27:05;92776.47;;;12.48;73.00
20009;BME280;10165;42.662;23.260;2022-11-23T09:29:31;92773.13;;;12.12;73.76
20009;BME280;10165;42.662;23.260;2022-11-23T09:31:58;92770.44;;;11.13;78.07
20009;BME280;10165;42.662;23.260;2022-11-23T09:34:24;92765.88;;;11.98;75.77
20009;BME280;10165;42.662;23.260;2022-11-23T09:36:51;92758.19;;;12.18;73.01
20009;BME280;10165;42.662;23.260;2022-11-23T09:39:18;92763.13;;;12.30;72.12
20009;BME280;10165;42.662;23.260;2022-11-23T09:52:20;92779.19;;;12.34;71.78
20009;BME280;10165;42.662;23.260;2022-11-23T09:54:49;92770.84;;;11.40;75.27
20009;BME280;10165;42.662;23.260;2022-11-23T09:57:22;92775.78;;;12.12;74.07
20009;BME280;10165;42.662;23.260;2022-11-23T09:59:56;92759.34;;;12.21;72.75
20009;BME280;10165;42.662;23.260;2022-11-23T10:02:25;92769.34;;;12.97;71.59
20009;BME280;10165;42.662;23.260;2022-11-23T10:04:57;92773.84;;;13.21;70.40
20009;BME280;10165;42.662;23.260;2022-11-23T10:07:53;92758.38;;;13.43;68.77
20009;BME280;10165;42.662;23.260;2022-11-23T10:10:44;92763.97;;;13.00;69.91
20009;BME280;10165;42.662;23.260;2022-11-23T10:13:41;92763.34;;;12.75;71.47
20009;BME280;10165;42.662;23.260;2022-11-23T10:16:48;92750.34;;;12.70;69.53
20009;BME280;10165;42.662;23.260;2022-11-23T10:22:20;92750.16;;;13.09;66.84
20009;BME280;10165;42.662;23.260;2022-11-23T10:24:52;92753.03;;;13.39;66.85
20009;BME280;10165;42.662;23.260;2022-11-23T10:27:21;92760.34;;;13.83;65.95
20009;BME280;10165;42.662;23.260;2022-11-23T10:29:49;92758.59;;;13.62;66.91
20009;BME280;10165;42.662;23.260;2022-11-23T10:32:36;92745.78;;;13.80;59.51
20009;BME280;10165;42.662;23.260;2022-11-23T10:35:11;92745.91;;;14.07;57.78
20009;BME280;10165;42.662;23.260;2022-11-23T10:37:39;92739.88;;;14.33;56.00
20009;BME280;10165;42.662;23.260;2022-11-23T10:40:23;92730.75;;;13.90;54.32
20009;BME280;10165;42.662;23.260;2022-11-23T10:42:55;92728.66;;;14.46;55.97
20009;BME280;10165;42.662;23.260;2022-11-23T10:45:26;92723.56;;;13.83;54.84
20009;BME280;10165;42.662;23.260;2022-11-23T10:48:03;92721.94;;;14.27;54.97
20009;BME280;10165;42.662;23.260;2022-11-23T10:50:33;92722.13;;;14.47;53.08
20009;BME280;10165;42.662;23.260;2022-11-23T10:53:21;92719.88;;;14.72;53.30
20009;BME280;10165;42.662;23.260;2022-11-23T10:55:52;92713.69;;;14.78;52.53
20009;BME280;10165;42.662;23.260;2022-11-23T10:58:27;92721.47;;;14.69;52.26
20009;BME280;10165;42.662;23.260;2022-11-23T11:01:22;92709.28;;;14.61;51.91
20009;BME280;10165;42.662;23.260;2022-11-23T11:03:52;92709.63;;;14.94;51.15
20009;BME280;10165;42.662;23.260;2022-11-23T11:08:50;92721.56;;;14.28;52.53
20009;BME280;10165;42.662;23.260;2022-11-23T11:11:24;92709.22;;;14.65;53.28
20009;BME280;10165;42.662;23.260;2022-11-23T11:14:14;92710.19;;;14.51;53.14
20009;BME280;10165;42.662;23.260;2022-11-23T11:16:52;92720.41;;;14.94;52.43
20009;BME280;10165;42.662;23.260;2022-11-23T11:19:35;92709.75;;;14.53;51.23
20009;BME280;10165;42.662;23.260;2022-11-23T11:22:31;92715.34;;;14.96;51.54
20009;BME280;10165;42.662;23.260;2022-11-23T11:25:00;92724.44;;;14.78;50.34
20009;BME280;10165;42.662;23.260;2022-11-23T11:27:29;92714.94;;;14.70;50.67
20009;BME280;10165;42.662;23.260;2022-11-23T11:30:04;92712.38;;;14.90;50.28
20009;BME280;10165;42.662;23.260;2022-11-23T11:32:40;92710.38;;;14.67;49.42
20009;BME280;10165;42.662;23.260;2022-11-23T11:35:28;92701.50;;;14.70;49.62
20009;BME280;10165;42.662;23.260;2022-11-23T11:38:03;92695.22;;;14.50;50.10
20009;BME280;10165;42.662;23.260;2022-11-23T11:43:15;92717.81;;;14.87;50.17
20009;BME280;10165;42.662;23.260;2022-11-23T11:45:44;92716.06;;;15.00;47.94
20009;BME280;10165;42.662;23.260;2022-11-23T11:51:03;92721.88;;;15.25;46.86
20009;BME280;10165;42.662;23.260;2022-11-23T11:56:42;92719.91;;;15.02;47.06
20009;BME280;10165;42.662;23.260;2022-11-23T11:59:21;92712.88;;;15.35;46.57
20009;BME280;10165;42.662;23.260;2022-11-23T12:04:42;92715.88;;;15.67;46.29
20009;BME280;10165;42.662;23.260;2022-11-23T12:07:16;92722.88;;;15.61;45.78
20009;BME280;10165;42.662;23.260;2022-11-23T12:09:46;92723.13;;;15.44;45.29
20009;BME280;10165;42.662;23.260;2022-11-23T12:12:18;92712.41;;;15.67;44.99
20009;BME280;10165;42.662;23.260;2022-11-23T12:14:52;92718.06;;;15.72;44.90
20009;BME280;10165;42.662;23.260;2022-11-23T12:17:47;92721.41;;;15.80;44.79
20009;BME280;10165;42.662;23.260;2022-11-23T12:20:27;92718.56;;;15.41;45.26
20009;BME280;10165;42.662;23.260;2022-11-23T12:26:11;92720.50;;;15.40;48.01
20009;BME280;10165;42.662;23.260;2022-11-23T12:32:01;92715.31;;;14.39;49.20
20009;BME280;10165;42.662;23.260;2022-11-23T12:40:25;92721.44;;;15.26;47.10
20009;BME280;10165;42.662;23.260;2022-11-23T12:43:11;92715.34;;;15.22;48.81
20009;BME280;10165;42.662;23.260;2022-11-23T12:49:09;92707.94;;;14.76;48.17
20009;BME280;10165;42.662;23.260;2022-11-23T12:57:30;92707.75;;;14.60;46.48
20009;BME280;10165;42.662;23.260;2022-11-23T13:00:06;92700.28;;;14.75;45.99
20009;BME280;10165;42.662;23.260;2022-11-23T13:08:22;92714.22;;;14.66;47.18
20009;BME280;10165;42.662;23.260;2022-11-23T13:22:50;92716.75;;;14.47;47.65
20009;BME280;10165;42.662;23.260;2022-11-23T13:35:51;92734.72;;;13.78;49.43
20009;BME280;10165;42.662;23.260;2022-11-23T13:38:23;92736.94;;;14.24;49.02
20009;BME280;10165;42.662;23.260;2022-11-23T13:40:50;92738.78;;;13.94;50.06
20009;BME280;10165;42.662;23.260;2022-11-23T13:43:21;92740.66;;;14.34;48.62
20009;BME280;10165;42.662;23.260;2022-11-23T13:46:16;92748.53;;;14.14;49.46
20009;BME280;10165;42.662;23.260;2022-11-23T13:48:47;92756.78;;;14.34;49.29
20009;BME280;10165;42.662;23.260;2022-11-23T13:51:27;92767.66;;;13.82;49.44
20009;BME280;10165;42.662;23.260;2022-11-23T14:04:29;92781.63;;;14.45;47.09
20009;BME280;10165;42.662;23.260;2022-11-23T14:31:29;92774.13;;;14.26;46.04
20009;BME280;10165;42.662;23.260;2022-11-23T14:34:22;92775.97;;;14.36;46.69
20009;BME280;10165;42.662;23.260;2022-11-23T14:37:08;92767.13;;;13.98;48.12
20009;BME280;10165;42.662;23.260;2022-11-23T14:42:15;92760.88;;;14.08;48.43
20009;BME280;10165;42.662;23.260;2022-11-23T14:44:43;92756.84;;;13.45;49.10
20009;BME280;10165;42.662;23.260;2022-11-23T14:47:10;92759.28;;;13.73;48.49
20009;BME280;10165;42.662;23.260;2022-11-23T14:49:48;92747.34;;;13.78;48.77
20009;BME280;10165;42.662;23.260;2022-11-23T14:52:18;92756.72;;;13.59;49.66
20009;BME280;10165;42.662;23.260;2022-11-23T14:54:50;92773.78;;;13.31;49.90
20009;BME280;10165;42.662;23.260;2022-11-23T14:57:19;92760.72;;;13.37;49.46
20009;BME280;10165;42.662;23.260;2022-11-23T14:59:56;92774.56;;;13.76;48.32
20009;BME280;10165;42.662;23.260;2022-11-23T15:02:37;92772.75;;;13.66;48.56
20009;BME280;10165;42.662;23.260;2022-11-23T15:07:59;92758.16;;;13.16;49.08